Time;durP1;ratioP1;P1;durP2;ratioP2;P2;SDS_P1;SDS_P2;PMS_P1;PMS_P2;Temp;Humidity;BMP_temperature;BMP_pressure;BME280_temperature;BME280_humidity;BME280_pressure;Samples;Min_cycle;Max_cycle;Signal;HPM_P1;HPM_P2
2021/07/15 00:03:28;;;;;;;16.20;9.43;;;;;;;23.60;100.00;94602.41;10577059;28;20024;-78
2021/07/15 00:08:28;;;;;;;17.38;10.32;;;;;;;23.49;100.00;94605.72;10585143;28;20077;-78
2021/07/15 00:13:29;;;;;;;14.40;9.67;;;;;;;23.43;100.00;94609.09;10572507;28;20042;-78
2021/07/15 00:18:32;;;;;;;11.80;8.50;;;;;;;23.25;100.00;94608.69;10570996;28;20270;-78
2021/07/15 00:23:32;;;;;;;16.88;9.98;;;;;;;23.27;100.00;94603.66;10558784;28;20289;-78
2021/07/15 00:28:36;;;;;;;14.48;9.80;;;;;;;23.34;100.00;94612.81;10577094;28;20028;-78
2021/07/15 00:33:37;;;;;;;15.18;10.13;;;;;;;23.32;100.00;94611.63;10576125;28;20041;-78
2021/07/15 00:38:38;;;;;;;17.30;9.88;;;;;;;23.13;100.00;94613.13;10577233;28;20084;-78
2021/07/15 00:43:38;;;;;;;20.25;10.20;;;;;;;23.15;100.00;94610.03;10559055;28;20023;-78
2021/07/15 00:48:39;;;;;;;16.93;10.43;;;;;;;22.96;100.00;94614.28;10548838;28;20024;-78
2021/07/15 00:53:39;;;;;;;19.63;9.82;;;;;;;22.84;100.00;94606.97;10534562;28;20024;-78
2021/07/15 00:58:40;;;;;;;16.35;10.05;;;;;;;22.80;100.00;94597.88;10535517;28;20032;-78
2021/07/15 01:03:40;;;;;;;16.65;10.02;;;;;;;22.78;100.00;94596.63;10535935;28;20016;-79
2021/07/15 01:08:40;;;;;;;20.13;10.50;;;;;;;22.70;100.00;94595.66;10530746;28;20502;-77
2021/07/15 01:13:48;;;;;;;24.70;11.70;;;;;;;22.62;100.00;94591.97;10530121;28;20035;-79
2021/07/15 01:18:54;;;;;;;21.27;12.10;;;;;;;22.60;100.00;94587.97;10526162;28;20028;-78
2021/07/15 01:24:25;;;;;;;18.02;10.57;;;;;;;22.54;100.00;94592.94;10543215;28;20051;-78
2021/07/15 01:29:30;;;;;;;20.10;11.70;;;;;;;22.42;100.00;94590.28;10574687;28;20547;-78
2021/07/15 01:34:34;;;;;;;21.00;11.80;;;;;;;22.29;100.00;94586.78;10573907;28;20486;-78
2021/07/15 01:39:36;;;;;;;16.92;10.68;;;;;;;22.23;100.00;94594.47;10573180;28;20053;-78
2021/07/15 01:44:37;;;;;;;17.83;10.98;;;;;;;22.13;100.00;94589.50;10554647;28;20020;-78
2021/07/15 01:49:41;;;;;;;18.98;10.75;;;;;;;22.14;100.00;94596.56;10571992;28;20034;-78
2021/07/15 01:54:50;;;;;;;15.57;11.38;;;;;;;22.08;100.00;94592.50;10571123;28;20438;-78
2021/07/15 01:59:53;;;;;;;17.67;10.40;;;;;;;22.18;100.00;94605.66;10575041;28;20032;-77
2021/07/15 02:04:56;;;;;;;16.40;11.35;;;;;;;22.24;100.00;94601.50;10580793;28;20130;-78
2021/07/15 02:09:57;;;;;;;18.42;10.80;;;;;;;22.22;100.00;94595.59;10581766;28;20027;-78
2021/07/15 02:14:58;;;;;;;16.75;11.63;;;;;;;22.16;100.00;94595.06;10578454;28;20038;-77
2021/07/15 02:19:59;;;;;;;15.43;10.07;;;;;;;21.97;100.00;94597.69;10572806;28;20473;-77
2021/07/15 02:25:01;;;;;;;18.08;11.68;;;;;;;21.96;100.00;94607.84;10598860;27;20047;-78
2021/07/15 02:30:07;;;;;;;22.75;13.48;;;;;;;21.94;100.00;94593.69;10619160;27;20069;-78
2021/07/15 02:35:14;;;;;;;21.90;12.55;;;;;;;21.95;100.00;94597.22;10635047;27;20027;-78
2021/07/15 02:40:16;;;;;;;23.90;12.55;;;;;;;22.01;100.00;94596.63;10618059;27;20039;-78
2021/07/15 02:45:19;;;;;;;25.67;14.77;;;;;;;22.06;100.00;94595.59;10617164;27;20473;-78
2021/07/15 02:50:23;;;;;;;20.27;13.88;;;;;;;21.96;100.00;94599.63;10617663;27;20027;-78
2021/07/15 02:55:25;;;;;;;26.13;14.82;;;;;;;21.78;100.00;94601.06;10598835;27;20500;-78
2021/07/15 03:00:26;;;;;;;25.15;15.65;;;;;;;21.76;100.00;94592.41;10617467;27;20030;-78
2021/07/15 03:05:38;;;;;;;24.25;14.35;;;;;;;21.73;100.00;94599.38;10616381;27;20035;-78
2021/07/15 03:10:39;;;;;;;25.00;14.98;;;;;;;21.65;100.00;94598.34;10616604;27;20375;-78
2021/07/15 03:15:41;;;;;;;26.95;16.02;;;;;;;21.54;100.00;94602.72;10615232;27;20062;-78
2021/07/15 03:20:44;;;;;;;29.45;16.98;;;;;;;21.42;100.00;94606.28;10616226;27;20023;-78
2021/07/15 03:25:48;;;;;;;27.58;15.85;;;;;;;21.49;100.00;94611.16;10616847;27;20086;-78
2021/07/15 03:30:50;;;;;;;29.13;15.77;;;;;;;21.54;100.00;94613.66;10616251;27;20040;-78
2021/07/15 03:35:51;;;;;;;26.88;16.95;;;;;;;21.47;100.00;94607.97;10615246;27;20534;-78
2021/07/15 03:40:52;;;;;;;34.22;18.38;;;;;;;21.49;100.00;94605.69;10617740;27;20096;-78
2021/07/15 03:45:53;;;;;;;28.40;18.15;;;;;;;21.42;100.00;94606.28;10617133;27;20375;-78
2021/07/15 03:51:02;;;;;;;33.45;19.27;;;;;;;21.40;100.00;94603.09;10616549;27;20035;-78
2021/07/15 03:56:06;;;;;;;30.70;18.35;;;;;;;21.50;100.00;94605.34;10616819;27;20031;-78
2021/07/15 04:01:09;;;;;;;27.33;17.65;;;;;;;21.51;100.00;94612.38;10623539;27;20075;-78
2021/07/15 04:06:11;;;;;;;35.53;19.27;;;;;;;21.64;100.00;94602.25;10615882;27;20458;-78
2021/07/15 04:11:15;;;;;;;35.80;19.50;;;;;;;21.77;100.00;94599.47;10632009;27;20035;-79
2021/07/15 04:16:42;;;;;;;44.88;19.75;;;;;;;21.97;100.00;94598.47;10615195;27;20027;-77
2021/07/15 04:21:44;;;;;;;34.97;18.60;;;;;;;22.05;100.00;94598.66;10614248;27;20497;-77
2021/07/15 04:26:45;;;;;;;42.45;20.75;;;;;;;22.25;100.00;94602.31;10613276;27;20058;-77
2021/07/15 04:31:56;;;;;;;33.97;19.98;;;;;;;22.46;100.00;94593.91;10613365;27;20027;-78
2021/07/15 04:36:57;;;;;;;34.13;18.88;;;;;;;22.60;100.00;94601.66;10613702;27;20453;-77
2021/07/15 04:42:01;;;;;;;37.33;19.95;;;;;;;22.88;100.00;94598.81;10581918;27;20027;-77
2021/07/15 04:47:05;;;;;;;36.20;20.13;;;;;;;23.06;100.00;94590.22;10579469;27;20031;-77
2021/07/15 04:52:08;;;;;;;32.92;18.10;;;;;;;23.31;100.00;94583.38;10573148;27;20093;-78
2021/07/15 04:57:10;;;;;;;36.10;17.63;;;;;;;23.75;100.00;94592.50;10566901;28;20024;-78
2021/07/15 05:02:11;;;;;;;33.53;18.58;;;;;;;24.01;100.00;94597.38;10567678;28;20020;-77
2021/07/15 05:07:11;;;;;;;31.13;17.58;;;;;;;24.41;100.00;94601.63;10579425;27;20038;-77
2021/07/15 05:12:11;;;;;;;25.63;15.67;;;;;;;24.68;100.00;94597.03;10550691;28;20043;-77
2021/07/15 05:17:12;;;;;;;29.08;16.13;;;;;;;25.04;100.00;94599.56;10572692;27;20423;-78
2021/07/15 05:22:12;;;;;;;30.90;16.00;;;;;;;25.50;100.00;94598.69;10577593;27;20034;-78
2021/07/15 05:27:13;;;;;;;33.15;15.95;;;;;;;26.03;100.00;94604.06;10567168;28;20661;-78
2021/07/15 05:32:14;;;;;;;23.70;15.43;;;;;;;26.52;100.00;94602.22;10568364;28;20035;-78
2021/07/15 05:37:14;;;;;;;30.37;15.87;;;;;;;26.93;100.00;94606.94;10566394;28;20019;-78
2021/07/15 05:42:15;;;;;;;24.17;13.93;;;;;;;27.62;100.00;94599.94;10567829;28;20156;-78
2021/07/15 05:47:15;;;;;;;21.53;12.47;;;;;;;28.27;97.13;94611.25;10567013;28;20313;-78
2021/07/15 05:52:16;;;;;;;29.95;13.55;;;;;;;28.48;93.26;94610.50;10567505;28;20379;-78
2021/07/15 05:57:16;;;;;;;20.27;13.23;;;;;;;28.33;94.86;94608.91;10567610;28;20028;-78
2021/07/15 06:02:17;;;;;;;21.30;12.75;;;;;;;28.84;93.34;94604.28;10568047;28;20028;-78
2021/07/15 06:07:17;;;;;;;26.00;13.65;;;;;;;29.77;85.82;94597.84;10567061;28;20055;-78
2021/07/15 06:12:18;;;;;;;22.17;11.45;;;;;;;30.24;76.74;94592.13;10566839;28;20077;-78
2021/07/15 06:17:18;;;;;;;19.50;11.17;;;;;;;30.03;78.73;94593.03;10524402;28;20024;-78
2021/07/15 06:22:20;;;;;;;19.17;10.17;;;;;;;30.45;74.95;94589.28;10524578;28;20380;-78
2021/07/15 06:27:20;;;;;;;18.08;9.88;;;;;;;31.19;68.73;94583.56;10524040;28;20280;-78
2021/07/15 06:32:21;;;;;;;26.03;10.30;;;;;;;31.86;64.51;94577.75;10520398;28;20074;-78
2021/07/15 06:37:31;;;;;;;13.73;9.50;;;;;;;32.06;61.11;94577.09;10498797;28;20136;-78
2021/07/15 06:42:32;;;;;;;16.38;9.77;;;;;;;32.24;59.75;94578.91;10505370;28;20035;-78
2021/07/15 06:47:34;;;;;;;23.63;8.52;;;;;;;32.37;58.89;94566.81;10526171;28;20524;-78
2021/07/15 06:52:35;;;;;;;20.20;9.70;;;;;;;32.94;55.90;94564.34;10531082;28;20060;-78
2021/07/15 06:57:36;;;;;;;15.48;9.00;;;;;;;33.06;55.60;94557.41;10523745;28;20097;-78
2021/07/15 07:02:41;;;;;;;15.80;8.90;;;;;;;33.55;52.11;94559.75;10519776;28;20028;-78
2021/07/15 07:07:42;;;;;;;15.63;8.10;;;;;;;34.49;47.88;94547.47;10532277;28;20112;-78
2021/07/15 07:12:44;;;;;;;11.98;7.10;;;;;;;34.42;46.83;94549.66;10531879;28;20024;-78
2021/07/15 07:17:45;;;;;;;8.85;6.25;;;;;;;35.02;45.61;94546.66;10531212;28;20024;-78
2021/07/15 07:22:47;;;;;;;11.93;7.30;;;;;;;35.55;43.33;94538.91;10535247;28;20043;-78
2021/07/15 07:27:47;;;;;;;17.42;6.68;;;;;;;36.52;41.35;94526.97;10573018;28;20032;-78
2021/07/15 07:32:48;;;;;;;15.82;6.85;;;;;;;37.02;39.74;94524.59;10573836;28;20020;-78
2021/07/15 07:37:48;;;;;;;14.07;6.40;;;;;;;36.90;40.04;94512.16;10573088;28;20039;-77
2021/07/15 07:42:48;;;;;;;14.57;5.87;;;;;;;37.93;38.19;94520.25;10573488;28;20019;-78
2021/07/15 07:47:49;;;;;;;13.33;6.90;;;;;;;38.03;36.96;94515.47;10570816;28;20039;-77
2021/07/15 07:52:49;;;;;;;13.37;7.00;;;;;;;38.20;37.20;94502.00;10572078;28;20300;-77
2021/07/15 07:57:51;;;;;;;15.47;6.53;;;;;;;38.38;36.87;94511.78;10553156;28;20024;-77
2021/07/15 08:02:52;;;;;;;13.65;6.13;;;;;;;38.48;35.90;94504.94;10570742;28;20266;-78
2021/07/15 08:07:52;;;;;;;12.70;6.50;;;;;;;39.02;35.19;94502.00;10571404;28;20015;-77
2021/07/15 08:12:54;;;;;;;15.90;6.60;;;;;;;39.26;34.97;94499.41;10571782;28;20822;-79
2021/07/15 08:17:54;;;;;;;19.95;7.13;;;;;;;40.00;33.94;94493.75;10572099;28;20102;-77
2021/07/15 08:22:54;;;;;;;10.67;5.27;;;;;;;40.72;32.68;94490.41;10570265;28;20100;-77
2021/07/15 08:27:55;;;;;;;16.97;6.63;;;;;;;40.77;32.54;94491.78;10562474;28;20031;-77
2021/07/15 08:32:55;;;;;;;11.07;5.80;;;;;;;40.90;32.29;94483.09;10530125;28;20092;-78
2021/07/15 08:37:56;;;;;;;10.70;5.83;;;;;;;40.58;32.26;94486.25;10567549;28;20031;-78
2021/07/15 08:42:56;;;;;;;9.18;5.40;;;;;;;41.21;31.39;94485.59;10567775;28;20100;-77
2021/07/15 08:48:01;;;;;;;8.83;5.57;;;;;;;40.82;31.57;94477.06;10530593;28;20035;-77
2021/07/15 08:53:02;;;;;;;13.63;6.27;;;;;;;40.45;32.52;94475.16;10526349;28;20097;-77
2021/07/15 08:58:02;;;;;;;14.73;6.10;;;;;;;41.06;31.63;94474.25;10555038;28;20085;-77
2021/07/15 09:03:03;;;;;;;16.40;5.75;;;;;;;40.90;32.83;94460.56;10527025;28;20077;-78
2021/07/15 09:08:03;;;;;;;10.27;5.67;;;;;;;41.47;31.32;94474.59;10526804;28;20028;-77
2021/07/15 09:13:04;;;;;;;9.38;5.57;;;;;;;40.96;31.73;94456.63;10526387;28;20282;-77
2021/07/15 09:18:14;;;;;;;8.27;6.40;;;;;;;41.23;31.32;94459.72;10527041;28;20413;-77
2021/07/15 09:23:16;;;;;;;13.32;6.50;;;;;;;41.77;30.98;94452.06;10525412;28;20767;-77
2021/07/15 09:28:24;;;;;;;10.35;5.40;;;;;;;41.55;31.10;94446.78;10532995;27;20038;-77
2021/07/15 09:33:26;;;;;;;12.93;6.00;;;;;;;41.26;32.03;94439.03;10579053;27;20168;-77
2021/07/15 09:38:26;;;;;;;11.20;5.70;;;;;;;41.83;30.54;94438.84;10576326;27;20038;-78
2021/07/15 09:43:35;;;;;;;7.30;5.13;;;;;;;42.80;29.55;94431.91;10582540;27;20027;-77
2021/07/15 09:48:35;;;;;;;10.88;5.63;;;;;;;41.27;30.89;94438.53;10611140;27;20030;-78
2021/07/15 09:53:36;;;;;;;15.37;5.93;;;;;;;42.90;29.97;94424.06;10600148;27;20103;-78
2021/07/15 09:58:42;;;;;;;12.03;5.03;;;;;;;43.64;28.77;94422.88;10576140;28;20494;-78
2021/07/15 10:03:44;;;;;;;10.50;4.30;;;;;;;44.05;27.23;94419.94;10578086;28;20026;-78
2021/07/15 10:08:46;;;;;;;12.65;4.80;;;;;;;43.89;27.71;94412.88;10574432;28;20042;-77
2021/07/15 10:14:08;;;;;;;9.20;5.00;;;;;;;43.82;28.14;94399.13;10577489;28;20034;-77
2021/07/15 10:19:17;;;;;;;11.73;5.03;;;;;;;44.00;27.52;94401.63;10569352;28;20035;-77
2021/07/15 10:24:21;;;;;;;10.38;4.55;;;;;;;43.30;27.70;94399.88;10594559;27;20399;-77
2021/07/15 10:29:23;;;;;;;7.00;4.83;;;;;;;43.96;27.40;94381.28;10576261;28;20098;-77
2021/07/15 10:34:25;;;;;;;21.27;5.00;;;;;;;45.20;26.33;94381.25;10558977;28;20115;-77
2021/07/15 10:39:28;;;;;;;9.02;5.15;;;;;;;44.77;26.61;94375.66;10595144;27;20031;-78
2021/07/15 10:44:29;;;;;;;14.20;4.43;;;;;;;45.00;25.96;94375.72;10591164;27;20023;-78
2021/07/15 10:49:29;;;;;;;13.20;5.00;;;;;;;44.10;26.76;94367.44;10556244;27;20500;-78
2021/07/15 10:54:31;;;;;;;9.50;5.13;;;;;;;43.52;27.41;94363.34;10601728;27;20035;-77
2021/07/15 10:59:32;;;;;;;9.02;5.05;;;;;;;43.24;27.96;94367.94;10574294;28;20034;-77
2021/07/15 11:04:34;;;;;;;12.57;5.63;;;;;;;42.47;28.69;94354.63;10574864;28;20019;-77
2021/07/15 11:09:38;;;;;;;12.50;5.63;;;;;;;38.93;32.27;94379.91;10573733;28;20027;-77
2021/07/15 11:14:49;;;;;;;12.60;6.28;;;;;;;36.86;35.70;94357.44;10574542;28;20024;-78
2021/07/15 11:20:01;;;;;;;15.00;6.28;;;;;;;35.55;36.76;94356.44;10574382;28;20039;-78
2021/07/15 11:25:06;;;;;;;14.63;6.82;;;;;;;35.36;37.27;94345.03;10580144;27;20061;-78
2021/07/15 11:30:09;;;;;;;14.70;7.28;;;;;;;34.81;38.79;94356.13;10573449;28;20042;-78
2021/07/15 11:35:28;;;;;;;15.23;7.97;;;;;;;34.36;41.08;94348.53;10593956;27;20026;-78
2021/07/15 11:40:35;;;;;;;15.13;8.13;;;;;;;34.50;41.34;94339.75;10574247;28;20027;-79
2021/07/15 11:45:55;;;;;;;;;;;;;;;34.13;42.42;94338.28;10575462;28;20063;-79
2021/07/15 11:51:21;;;;;;;12.88;7.55;;;;;;;33.75;43.42;94333.97;10574139;28;20412;-78
2021/07/15 11:56:22;;;;;;;19.52;7.75;;;;;;;33.70;44.32;94343.66;10573942;28;20028;-78
2021/07/15 12:01:29;;;;;;;15.77;8.73;;;;;;;33.77;43.25;94334.38;10574726;28;20055;-78
2021/07/15 12:06:32;;;;;;;12.57;8.27;;;;;;;33.76;43.54;94332.81;10572363;28;20272;-78
2021/07/15 12:11:33;;;;;;;12.60;7.28;;;;;;;33.71;43.49;94316.56;10589419;27;20035;-77
2021/07/15 12:16:36;;;;;;;14.88;7.78;;;;;;;33.37;45.62;94324.06;10583997;27;20077;-78
2021/07/15 12:21:38;;;;;;;14.75;8.05;;;;;;;33.07;46.47;94321.53;10528095;28;20050;-77
2021/07/15 12:26:39;;;;;;;12.60;7.70;;;;;;;33.31;46.57;94322.22;10581338;27;20047;-77
2021/07/15 12:31:41;;;;;;;15.20;8.07;;;;;;;33.35;45.54;94326.53;10613739;27;20035;-78
2021/07/15 12:36:49;;;;;;;20.42;9.27;;;;;;;32.95;47.06;94317.41;10564694;27;20046;-79
2021/07/15 12:41:49;;;;;;;18.17;8.40;;;;;;;32.95;45.72;94314.63;10619986;27;20749;-77
2021/07/15 12:46:52;;;;;;;12.23;8.13;;;;;;;32.99;44.83;94321.69;10607577;27;20027;-77
2021/07/15 12:51:59;;;;;;;13.55;8.93;;;;;;;32.66;45.91;94326.28;10593477;27;20034;-77
2021/07/15 12:57:02;;;;;;;16.73;9.35;;;;;;;32.69;43.67;94306.75;10585998;27;20818;-77
2021/07/15 13:02:03;;;;;;;14.20;8.00;;;;;;;32.74;43.58;94299.13;10569513;28;20039;-77
2021/07/15 13:07:08;;;;;;;17.45;8.40;;;;;;;32.61;44.30;94299.75;10569607;28;20050;-77
2021/07/15 13:17:43;;;;;;;12.70;8.35;;;;;;;32.85;44.04;94291.38;10576653;28;20110;-77
2021/07/15 13:22:45;;;;;;;13.40;8.43;;;;;;;32.97;44.41;94303.84;10568435;28;20031;-77
2021/07/15 13:27:47;;;;;;;16.48;8.27;;;;;;;33.01;43.74;94293.41;10568886;28;20063;-77
2021/07/15 13:32:48;;;;;;;11.30;8.13;;;;;;;32.95;43.84;94290.34;10568675;28;20033;-77
2021/07/15 13:37:49;;;;;;;23.73;10.55;;;;;;;32.77;43.77;94289.94;10568520;28;20810;-77
2021/07/15 13:43:01;;;;;;;14.55;8.50;;;;;;;32.52;44.56;94275.25;10567804;28;20019;-78
2021/07/15 13:48:23;;;;;;;19.48;8.15;;;;;;;32.45;44.70;94283.75;10568492;28;20398;-77
2021/07/15 13:53:26;;;;;;;14.73;8.25;;;;;;;32.59;44.52;94276.34;10549704;28;20023;-78
2021/07/15 13:58:27;;;;;;;25.63;9.95;;;;;;;32.64;45.16;94278.59;10566495;28;20047;-78
2021/07/15 14:03:28;;;;;;;21.92;8.73;;;;;;;32.53;46.20;94273.28;10567811;28;20177;-78
2021/07/15 14:08:32;;;;;;;12.73;7.65;;;;;;;32.35;48.26;94268.06;10549084;28;20435;-78
2021/07/15 14:13:37;;;;;;;17.60;7.90;;;;;;;31.92;47.67;94250.13;10579208;28;20103;-78
2021/07/15 14:18:37;;;;;;;15.38;8.68;;;;;;;31.84;48.54;94240.31;10567133;28;20028;-78
2021/07/15 14:23:39;;;;;;;16.97;8.43;;;;;;;31.51;49.68;94249.16;10566410;28;20510;-78
2021/07/15 14:28:40;;;;;;;15.60;7.40;;;;;;;31.60;49.56;94237.53;10567597;28;20284;-78
2021/07/15 14:33:41;;;;;;;15.60;8.52;;;;;;;31.33;49.61;94223.69;10566398;28;20032;-77
2021/07/15 14:38:42;;;;;;;17.42;9.05;;;;;;;31.36;49.30;94220.81;10566559;28;20030;-78
2021/07/15 14:43:42;;;;;;;16.00;7.97;;;;;;;31.39;48.08;94219.19;10548648;28;20050;-78
2021/07/15 14:48:43;;;;;;;17.23;8.03;;;;;;;31.42;47.90;94223.91;10548522;28;20273;-78
2021/07/15 14:53:43;;;;;;;11.38;7.18;;;;;;;31.36;48.05;94220.81;10565634;28;20020;-78
2021/07/15 14:58:44;;;;;;;13.43;8.23;;;;;;;31.34;47.88;94225.22;10566736;28;20020;-77
2021/07/15 15:03:44;;;;;;;15.23;7.60;;;;;;;31.18;48.12;94218.31;10566209;28;20023;-78
2021/07/15 15:08:44;;;;;;;23.52;8.77;;;;;;;31.14;46.42;94225.91;10551912;28;20022;-78
2021/07/15 15:13:45;;;;;;;12.70;7.43;;;;;;;31.11;47.45;94214.88;10572827;28;20547;-78
2021/07/15 15:18:45;;;;;;;16.37;8.13;;;;;;;31.22;48.55;94209.16;10590221;28;20035;-78
2021/07/15 15:23:45;;;;;;;17.10;10.23;;;;;;;31.16;47.64;94194.97;10571851;28;20043;-77
2021/07/15 15:28:46;;;;;;;12.47;8.23;;;;;;;31.15;48.67;94196.97;10572399;28;20047;-77
2021/07/15 15:33:46;;;;;;;14.80;8.47;;;;;;;30.91;51.48;94193.31;10572346;28;20385;-77
2021/07/15 15:38:47;;;;;;;14.77;8.18;;;;;;;30.77;54.06;94193.50;10572558;28;20270;-78
2021/07/15 15:43:48;;;;;;;12.80;8.50;;;;;;;30.62;56.26;94192.94;10572670;28;20077;-77
2021/07/15 15:48:48;;;;;;;16.67;9.02;;;;;;;30.57;57.66;94199.72;10572023;28;20107;-78
2021/07/15 15:53:49;;;;;;;13.80;9.53;;;;;;;30.48;57.21;94211.31;10571331;28;20031;-77
2021/07/15 15:58:49;;;;;;;11.63;8.07;;;;;;;30.38;57.38;94214.97;10571389;28;20403;-78
2021/07/15 16:03:49;;;;;;;16.60;9.70;;;;;;;30.35;58.36;94224.09;10572694;28;20497;-77
2021/07/15 16:08:50;;;;;;;21.93;8.83;;;;;;;30.27;58.36;94217.09;10571571;28;20496;-78
2021/07/15 16:13:50;;;;;;;14.00;8.50;;;;;;;30.24;57.93;94232.56;10572348;28;20055;-78
2021/07/15 16:18:50;;;;;;;18.50;9.27;;;;;;;30.00;58.37;94234.38;10570427;28;20386;-78
2021/07/15 16:23:51;;;;;;;16.03;8.77;;;;;;;29.79;58.63;94247.22;10571577;28;20509;-78
2021/07/15 16:28:51;;;;;;;14.60;8.60;;;;;;;29.75;58.08;94243.72;10570655;28;20827;-78
2021/07/15 16:33:52;;;;;;;12.17;7.83;;;;;;;29.70;58.24;94251.66;10570594;28;20023;-77
2021/07/15 16:38:52;;;;;;;19.50;9.07;;;;;;;29.47;58.61;94248.28;10570274;28;20525;-77
2021/07/15 16:43:54;;;;;;;14.82;8.00;;;;;;;29.51;58.02;94253.00;10570431;28;20048;-77
2021/07/15 16:48:54;;;;;;;10.80;7.10;;;;;;;29.41;57.51;94260.97;10570164;28;20787;-77
2021/07/15 16:53:55;;;;;;;13.43;7.70;;;;;;;29.39;58.00;94259.78;10570477;28;20129;-77
2021/07/15 16:58:55;;;;;;;11.07;7.53;;;;;;;29.13;58.16;94273.00;10570249;28;20277;-77
2021/07/15 17:03:55;;;;;;;15.13;8.33;;;;;;;29.11;58.96;94276.16;10573236;28;20311;-77
2021/07/15 17:08:56;;;;;;;11.43;7.93;;;;;;;29.13;59.44;94270.22;10571773;28;20043;-79
2021/07/15 17:13:56;;;;;;;16.10;8.50;;;;;;;28.97;60.80;94268.75;10569972;28;20042;-79
2021/07/15 17:18:56;;;;;;;11.23;8.07;;;;;;;28.98;60.09;94267.56;10551934;28;20032;-76
2021/07/15 17:23:57;;;;;;;10.63;7.43;;;;;;;28.83;58.39;94270.78;10568831;28;20103;-77
2021/07/15 17:28:58;;;;;;;16.80;7.68;;;;;;;28.74;58.43;94269.22;10568577;28;20075;-78
2021/07/15 17:33:59;;;;;;;10.77;7.65;;;;;;;28.56;58.59;94260.19;10568390;28;20100;-78
2021/07/15 17:39:01;;;;;;;11.25;7.80;;;;;;;28.54;57.49;94260.59;10584350;27;20562;-80
2021/07/15 17:44:01;;;;;;;15.75;7.30;;;;;;;28.45;56.67;94258.28;10532675;27;20092;-78
2021/07/15 17:49:02;;;;;;;11.15;6.93;;;;;;;28.48;56.26;94265.75;10603823;27;20083;-78
2021/07/15 17:54:03;;;;;;;10.65;6.75;;;;;;;28.51;55.65;94266.13;10609954;27;20077;-78
2021/07/15 17:59:04;;;;;;;10.17;6.87;;;;;;;28.39;52.82;94264.63;10576981;28;20031;-78
2021/07/15 18:04:05;;;;;;;14.63;7.55;;;;;;;28.32;52.39;94284.75;10578845;28;20024;-78
2021/07/15 18:09:06;;;;;;;13.50;6.60;;;;;;;28.35;54.48;94291.47;10528150;28;20031;-78
2021/07/15 18:14:06;;;;;;;12.85;7.18;;;;;;;28.14;58.47;94293.09;10587273;28;20031;-78
2021/07/15 18:19:07;;;;;;;13.30;6.70;;;;;;;28.03;56.73;94315.19;10624128;27;20039;-78
2021/07/15 18:24:08;;;;;;;9.60;5.72;;;;;;;27.97;54.26;94325.06;10606897;28;20551;-79
2021/07/15 18:29:08;;;;;;;10.27;6.25;;;;;;;28.02;52.06;94338.50;10585917;28;20034;-77
2021/07/15 18:34:09;;;;;;;9.13;6.13;;;;;;;27.96;51.14;94343.59;10599726;27;20102;-78
2021/07/15 18:39:10;;;;;;;12.25;5.78;;;;;;;26.81;57.09;94361.84;10592133;27;21011;-77
2021/07/15 18:44:10;;;;;;;16.55;7.43;;;;;;;26.14;64.43;94356.31;10594253;27;20031;-77
2021/07/15 18:49:12;;;;;;;7.27;5.87;;;;;;;25.86;64.54;94345.84;10558326;28;20406;-77
2021/07/15 18:54:13;;;;;;;11.57;6.63;;;;;;;25.88;64.58;94344.28;10596650;27;20049;-78
2021/07/15 18:59:13;;;;;;;10.05;6.15;;;;;;;26.09;62.20;94346.44;10603475;27;20530;-78
2021/07/15 19:04:14;;;;;;;8.10;5.60;;;;;;;26.41;60.16;94350.56;10619248;27;20447;-77
2021/07/15 19:09:15;;;;;;;11.10;5.93;;;;;;;26.67;58.54;94357.03;10620164;27;20031;-78
2021/07/15 19:14:16;;;;;;;15.15;7.00;;;;;;;26.81;59.32;94359.09;10619295;27;20798;-77
2021/07/15 19:19:16;;;;;;;13.57;6.72;;;;;;;26.83;60.25;94357.50;10634315;27;20065;-78
2021/07/15 19:24:17;;;;;;;15.77;6.87;;;;;;;26.67;62.03;94352.28;10619380;27;20130;-77
2021/07/15 19:29:17;;;;;;;12.60;6.77;;;;;;;26.58;63.23;94347.16;10577119;27;20281;-77
2021/07/15 19:34:17;;;;;;;10.93;6.50;;;;;;;26.53;63.28;94350.25;10573250;28;20039;-77
2021/07/15 19:39:18;;;;;;;11.37;7.63;;;;;;;26.43;62.22;94340.75;10580172;27;20109;-79
2021/07/15 19:44:18;;;;;;;12.20;6.35;;;;;;;26.41;59.58;94340.34;10594337;27;20035;-79
2021/07/15 19:49:19;;;;;;;10.10;7.03;;;;;;;26.42;58.41;94346.66;10596106;27;20023;-79
2021/07/15 19:54:19;;;;;;;13.50;6.75;;;;;;;26.42;58.74;94349.41;10617325;27;20035;-79
2021/07/15 19:59:20;;;;;;;10.00;5.53;;;;;;;26.42;57.04;94346.66;10618491;27;20035;-78
2021/07/15 20:04:20;;;;;;;8.60;6.40;;;;;;;26.42;57.63;94350.19;10617117;27;20088;-79
2021/07/15 20:09:20;;;;;;;8.87;6.40;;;;;;;26.37;57.94;94338.75;10598935;27;20039;-78
2021/07/15 20:14:21;;;;;;;8.43;5.97;;;;;;;26.30;57.93;94342.25;10616330;27;20142;-78
2021/07/15 20:19:22;;;;;;;12.05;5.57;;;;;;;26.23;58.31;94339.44;10596681;27;20363;-79
2021/07/15 20:24:22;;;;;;;9.18;5.50;;;;;;;26.17;59.21;94347.28;10612421;27;20043;-78
2021/07/15 20:29:23;;;;;;;17.70;6.90;;;;;;;26.11;59.88;94346.06;10574049;27;20509;-78
2021/07/15 20:34:23;;;;;;;14.35;5.80;;;;;;;26.01;61.27;94353.06;10574943;28;20020;-78
2021/07/15 20:39:23;;;;;;;10.20;5.57;;;;;;;25.94;61.65;94355.72;10574295;28;20057;-78
2021/07/15 20:44:24;;;;;;;8.13;6.23;;;;;;;25.90;62.46;94354.94;10573149;28;20012;-78
2021/07/15 20:49:24;;;;;;;20.20;6.53;;;;;;;25.91;62.85;94365.56;10578727;28;20139;-82
2021/07/15 20:54:25;;;;;;;10.27;6.47;;;;;;;25.90;63.26;94369.47;10579544;28;20049;-80
2021/07/15 20:59:25;;;;;;;12.75;6.80;;;;;;;25.90;63.85;94376.94;10579727;28;20081;-82
2021/07/15 21:04:25;;;;;;;12.25;6.43;;;;;;;25.89;64.27;94381.66;10579133;28;20063;-81
2021/07/15 21:09:26;;;;;;;18.90;6.30;;;;;;;25.87;65.38;94370.25;10579455;28;20039;-82
2021/07/15 21:14:26;;;;;;;7.20;5.57;;;;;;;25.63;68.10;94376.31;10579339;28;20122;-81
2021/07/15 21:19:27;;;;;;;17.80;6.53;;;;;;;25.52;69.78;94365.19;10579613;28;20088;-81
2021/07/15 21:24:27;;;;;;;15.43;6.13;;;;;;;25.36;71.87;94371.72;10578866;28;20289;-82
2021/07/15 21:29:28;;;;;;;12.80;5.67;;;;;;;25.30;72.00;94375.97;10578767;28;20028;-80
2021/07/15 21:34:30;;;;;;;8.47;5.50;;;;;;;25.23;72.07;94379.41;10560390;28;20039;-81
2021/07/15 21:39:30;;;;;;;13.10;5.68;;;;;;;25.07;73.34;94390.63;10578457;28;20028;-81
2021/07/15 21:44:31;;;;;;;9.85;5.85;;;;;;;25.16;73.15;94403.28;10570871;28;20012;-81
2021/07/15 21:49:31;;;;;;;13.00;5.60;;;;;;;25.06;74.25;94402.81;10575009;28;20027;-82
2021/07/15 21:54:32;;;;;;;9.97;6.03;;;;;;;24.94;75.75;94394.78;10575819;28;20023;-81
2021/07/15 21:59:32;;;;;;;10.15;5.03;;;;;;;24.72;77.35;94408.25;10572704;28;20271;-81
2021/07/15 22:04:33;;;;;;;12.37;5.13;;;;;;;24.64;77.27;94423.03;10578190;28;20092;-81
2021/07/15 22:09:34;;;;;;;11.98;4.47;;;;;;;24.44;78.35;94413.31;10578230;28;20024;-81
2021/07/15 22:14:35;;;;;;;7.57;5.20;;;;;;;24.42;77.64;94401.91;10577701;28;20462;-81
2021/07/15 22:19:35;;;;;;;11.48;4.40;;;;;;;24.42;76.02;94421.13;10582801;28;20273;-82
2021/07/15 22:24:36;;;;;;;6.87;4.37;;;;;;;24.45;75.32;94434.13;10586164;28;20050;-81
2021/07/15 22:29:37;;;;;;;12.83;4.77;;;;;;;24.54;76.42;94448.41;10585954;28;20277;-81
2021/07/15 22:34:37;;;;;;;8.20;4.57;;;;;;;24.56;72.88;94455.09;10585894;28;20038;-82
2021/07/15 22:39:37;;;;;;;19.23;4.23;;;;;;;24.52;70.67;94443.28;10585619;28;20588;-82
2021/07/15 22:44:38;;;;;;;7.87;5.30;;;;;;;24.49;70.85;94438.53;10585302;28;20047;-82
2021/07/15 22:49:38;;;;;;;8.73;3.93;;;;;;;24.53;72.05;94424.81;10585316;28;20754;-83
2021/07/15 22:54:38;;;;;;;8.10;4.00;;;;;;;24.52;72.83;94437.00;10584952;28;20051;-82
2021/07/15 22:59:39;;;;;;;7.63;4.17;;;;;;;24.44;73.00;94438.06;10584932;28;20530;-81
2021/07/15 23:04:39;;;;;;;8.13;3.90;;;;;;;24.36;72.19;94426.16;10575227;28;20156;-78
2021/07/15 23:09:40;;;;;;;7.80;3.57;;;;;;;24.26;72.02;94430.31;10556018;28;20035;-78